createdAt,value
2017-05-27T00:00:07.056Z,100873
2017-05-27T00:02:36.065Z,100861
2017-05-27T00:05:05.070Z,100858
2017-05-27T00:07:34.123Z,100861
2017-05-27T00:10:09.001Z,100862
2017-05-27T00:13:05.746Z,100860
2017-05-27T00:15:34.799Z,100861
2017-05-27T00:18:03.793Z,100861
2017-05-27T00:20:32.812Z,100865
2017-05-27T00:23:01.879Z,100872
2017-05-27T00:25:30.879Z,100863
2017-05-27T00:28:07.086Z,100864
2017-05-27T00:30:36.096Z,100875
2017-05-27T00:33:05.139Z,100878
2017-05-27T00:35:34.184Z,100880
2017-05-27T00:38:03.226Z,100876
2017-05-27T00:43:32.933Z,100882
2017-05-27T00:46:01.958Z,100898
2017-05-27T00:51:32.191Z,100886
2017-05-27T00:54:07.862Z,100894
2017-05-27T00:56:36.903Z,100891
2017-05-27T00:59:05.899Z,100898
2017-05-27T01:01:34.910Z,100901
2017-05-27T01:04:03.952Z,100899
2017-05-27T01:06:32.964Z,100901
2017-05-27T01:09:07.781Z,100899
2017-05-27T01:11:36.781Z,100905
2017-05-27T01:14:05.774Z,100895
2017-05-27T01:16:34.830Z,100901
2017-05-27T01:19:03.819Z,100906
2017-05-27T01:21:32.820Z,100902
2017-05-27T01:24:01.865Z,100907
2017-05-27T01:26:30.865Z,100905
2017-05-27T01:28:59.853Z,100911
2017-05-27T01:31:28.890Z,100906
2017-05-27T01:33:57.881Z,100913
2017-05-27T01:36:26.872Z,100923
2017-05-27T01:38:55.902Z,100919
2017-05-27T01:41:24.970Z,100920
2017-05-27T01:43:53.975Z,100925
2017-05-27T01:46:22.966Z,100930
2017-05-27T01:48:52.000Z,100924
2017-05-27T01:54:24.896Z,100934
2017-05-27T01:56:53.895Z,100933
2017-05-27T01:59:22.890Z,100927
2017-05-27T02:01:51.935Z,100936
2017-05-27T02:04:20.933Z,100936
2017-05-27T02:06:49.946Z,100940
2017-05-27T02:09:19.268Z,100936
2017-05-27T02:11:48.294Z,100940
2017-05-27T02:14:17.286Z,100942
2017-05-27T02:16:46.326Z,100944
2017-05-27T02:22:15.963Z,100954
2017-05-27T02:24:44.965Z,100947
2017-05-27T02:27:13.978Z,100953
2017-05-27T02:29:43.004Z,100956
2017-05-27T02:32:12.009Z,100947
2017-05-27T02:34:41.018Z,100956
2017-05-27T02:37:10.071Z,100957
2017-05-27T02:39:39.062Z,100964
2017-05-27T02:42:08.107Z,100969
2017-05-27T02:44:37.107Z,100976
2017-05-27T02:47:07.264Z,100968
2017-05-27T02:49:36.314Z,100970
2017-05-27T02:52:05.314Z,100969
2017-05-27T02:54:34.352Z,100977
2017-05-27T02:57:03.354Z,100968
2017-05-27T02:59:32.351Z,100966
2017-05-27T03:02:07.301Z,100966
2017-05-27T03:04:36.286Z,100970
2017-05-27T03:07:05.279Z,100977
2017-05-27T03:09:34.315Z,100972
2017-05-27T03:12:03.329Z,100973
2017-05-27T03:14:32.327Z,100973
2017-05-27T03:17:01.351Z,100986
2017-05-27T03:19:30.384Z,100981
2017-05-27T03:21:59.380Z,100978
2017-05-27T03:24:28.372Z,100988
2017-05-27T03:26:57.406Z,100994
2017-05-27T03:32:27.090Z,101001
2017-05-27T03:34:56.118Z,101002
2017-05-27T03:37:25.131Z,101003
2017-05-27T03:39:54.206Z,101003
2017-05-27T03:42:23.202Z,100998
2017-05-27T03:45:06.347Z,101004
2017-05-27T03:47:35.357Z,101007
2017-05-27T03:50:04.367Z,101015
2017-05-27T03:52:33.389Z,101024
2017-05-27T03:55:02.404Z,101022
2017-05-27T03:57:31.451Z,101019
2017-05-27T04:00:00.457Z,101005
2017-05-27T04:02:29.496Z,101016
2017-05-27T04:04:58.507Z,101011
2017-05-27T04:07:27.573Z,101010
2017-05-27T04:09:56.582Z,101015
2017-05-27T04:12:25.569Z,101014
2017-05-27T04:14:54.594Z,101016
2017-05-27T04:17:23.586Z,101019
2017-05-27T04:19:52.621Z,101018
2017-05-27T04:22:21.618Z,101009
2017-05-27T04:25:07.603Z,101018
2017-05-27T04:27:36.602Z,101018
2017-05-27T04:30:05.600Z,101024
2017-05-27T04:32:34.641Z,101030
2017-05-27T04:35:03.674Z,101027
2017-05-27T04:37:32.692Z,101031
2017-05-27T04:40:07.674Z,101031
2017-05-27T04:42:36.662Z,101021
2017-05-27T04:45:05.695Z,101014
2017-05-27T04:47:34.692Z,101026
2017-05-27T04:50:03.697Z,101025
2017-05-27T04:55:33.396Z,101032
2017-05-27T04:58:02.442Z,101038
2017-05-27T05:00:31.446Z,101032
2017-05-27T05:03:00.499Z,101038
2017-05-27T05:08:30.844Z,101042
2017-05-27T05:10:59.839Z,101047
2017-05-27T05:13:28.844Z,101040
2017-05-27T05:15:57.878Z,101049
2017-05-27T05:18:26.880Z,101054
2017-05-27T05:21:08.996Z,101061
2017-05-27T05:23:38.027Z,101053
2017-05-27T05:26:07.026Z,101056
2017-05-27T05:28:36.051Z,101059
2017-05-27T05:31:05.115Z,101069
2017-05-27T05:36:35.705Z,101057
2017-05-27T05:39:04.704Z,101065
2017-05-27T05:41:33.750Z,101058
2017-05-27T05:44:02.781Z,101059
2017-05-27T05:46:31.789Z,101063
2017-05-27T05:49:07.280Z,101075
2017-05-27T05:51:36.271Z,101074
2017-05-27T05:54:05.278Z,101069
2017-05-27T05:56:34.332Z,101070
2017-05-27T05:59:03.321Z,101077
2017-05-27T06:01:32.354Z,101078
2017-05-27T06:04:07.847Z,101087
2017-05-27T06:06:36.937Z,101081
2017-05-27T06:09:06.037Z,101096
2017-05-27T06:11:35.042Z,101087
2017-05-27T06:14:04.071Z,101089
2017-05-27T06:16:59.643Z,101090
2017-05-27T06:19:28.705Z,101091
2017-05-27T06:21:57.690Z,101092
2017-05-27T06:24:26.694Z,101095
2017-05-27T06:26:55.779Z,101094
2017-05-27T06:29:24.781Z,101101
2017-05-27T06:32:06.341Z,101101
2017-05-27T06:34:36.130Z,101100
2017-05-27T06:37:05.192Z,101102
2017-05-27T06:39:34.189Z,101103
2017-05-27T06:42:07.083Z,101102
2017-05-27T06:48:05.264Z,101102
2017-05-27T06:57:05.816Z,101120
2017-05-27T07:03:05.564Z,101118
2017-05-27T07:09:05.361Z,101127
2017-05-27T07:18:05.829Z,101123
2017-05-27T07:24:05.441Z,101129
2017-05-27T07:33:05.842Z,101123
2017-05-27T07:45:06.502Z,101129
2017-05-27T07:48:05.436Z,101127
2017-05-27T07:53:54.359Z,101135
2017-05-27T07:56:23.351Z,101138
2017-05-27T07:58:55.571Z,101140
2017-05-27T08:01:26.263Z,101142
2017-05-27T08:04:08.558Z,101149
2017-05-27T08:07:05.606Z,101149
2017-05-27T08:09:46.454Z,101147
2017-05-27T08:12:15.662Z,101143
2017-05-27T08:18:06.112Z,101150
2017-05-27T08:20:35.134Z,101152
2017-05-27T08:26:07.868Z,101148
2017-05-27T08:28:36.156Z,101146
2017-05-27T08:31:05.234Z,101157
2017-05-27T08:33:40.023Z,101155
2017-05-27T08:39:10.481Z,101151
2017-05-27T08:41:39.540Z,101153
2017-05-27T08:44:08.655Z,101152
2017-05-27T08:46:37.690Z,101146
2017-05-27T08:49:06.903Z,101156
2017-05-27T08:52:05.444Z,101157
2017-05-27T08:54:34.557Z,101160
2017-05-27T08:57:03.592Z,101153
2017-05-27T08:59:32.654Z,101155
2017-05-27T09:02:01.702Z,101149
2017-05-27T09:04:47.744Z,101159
2017-05-27T09:13:18.403Z,101151
2017-05-27T09:15:47.414Z,101156
2017-05-27T09:30:19.307Z,101164
2017-05-27T09:35:49.394Z,101171
2017-05-27T09:38:18.445Z,101174
2017-05-27T09:40:47.475Z,101175
2017-05-27T09:43:16.530Z,101169
2017-05-27T09:45:45.592Z,101163
2017-05-27T09:51:15.191Z,101166
2017-05-27T09:53:44.210Z,101156
2017-05-27T09:56:12.506Z,101147
2017-05-27T09:58:41.541Z,101164
2017-05-27T10:01:10.589Z,101159
2017-05-27T10:06:40.865Z,101166
2017-05-27T10:09:09.883Z,101162
2017-05-27T10:11:38.922Z,101164
2017-05-27T10:17:08.524Z,101163
2017-05-27T10:26:06.265Z,101158
2017-05-27T10:28:35.341Z,101149
2017-05-27T10:43:07.402Z,101149
2017-05-27T11:00:40.659Z,101149
2017-05-27T11:03:09.694Z,101155
2017-05-27T11:05:37.973Z,101144
2017-05-27T11:08:07.067Z,101145
2017-05-27T11:16:37.771Z,101138
2017-05-27T11:19:06.774Z,101132
2017-05-27T11:21:35.862Z,101123
2017-05-27T11:27:09.149Z,101118
2017-05-27T11:29:38.187Z,101125
2017-05-27T11:32:07.209Z,101125
2017-05-27T11:34:36.301Z,101125
2017-05-27T11:37:04.632Z,101130
2017-05-27T11:39:33.718Z,101121
2017-05-27T11:45:03.846Z,101121
2017-05-27T11:47:32.970Z,101119
2017-05-27T11:50:02.066Z,101117
2017-05-27T11:52:31.161Z,101119
2017-05-27T11:58:01.302Z,101121
2017-05-27T12:00:30.391Z,101114
2017-05-27T12:02:59.455Z,101111
2017-05-27T12:05:47.758Z,101104
2017-05-27T12:08:17.122Z,101103
2017-05-27T12:10:46.286Z,101099
2017-05-27T12:13:15.329Z,101107
2017-05-27T12:15:44.386Z,101112
2017-05-27T12:18:13.526Z,101105
2017-05-27T12:23:43.300Z,101094
2017-05-27T12:26:12.355Z,101093
2017-05-27T12:28:41.473Z,101105
2017-05-27T12:31:10.543Z,101101
2017-05-27T12:39:41.735Z,101102
2017-05-27T12:42:10.783Z,101101
2017-05-27T12:44:39.847Z,101094
2017-05-27T12:50:09.643Z,101085
2017-05-27T12:52:38.673Z,101090
2017-05-27T12:55:07.699Z,101094
2017-05-27T12:57:36.775Z,101086
2017-05-27T13:00:05.864Z,101084
2017-05-27T13:08:36.622Z,101082
2017-05-27T13:11:05.668Z,101074
2017-05-27T13:13:34.702Z,101077
2017-05-27T13:16:13.707Z,101075
2017-05-27T13:21:44.241Z,101067
2017-05-27T13:24:13.274Z,101074
2017-05-27T13:26:42.339Z,101070
2017-05-27T13:32:12.999Z,101077
2017-05-27T13:40:44.184Z,101057
2017-05-27T13:55:15.692Z,101053
2017-05-27T13:57:44.711Z,101048
2017-05-27T14:03:14.701Z,101045
2017-05-27T14:05:43.743Z,101046
2017-05-27T14:08:12.815Z,101050
2017-05-27T14:10:41.862Z,101038
2017-05-27T14:13:10.928Z,101039
2017-05-27T14:16:06.283Z,101052
2017-05-27T14:18:35.411Z,101042
2017-05-27T14:21:04.463Z,101032
2017-05-27T14:23:33.488Z,101029
2017-05-27T14:50:07.359Z,101026
2017-05-27T14:52:36.376Z,101038
2017-05-27T15:04:07.817Z,101045
2017-05-27T15:06:36.899Z,101027
2017-05-27T15:09:05.944Z,101031
2017-05-27T15:14:35.742Z,101023
2017-05-27T15:17:04.832Z,101011
2017-05-27T15:19:33.873Z,101021
2017-05-27T15:25:04.170Z,101012
2017-05-27T15:33:40.797Z,100996
2017-05-27T15:39:10.426Z,101011
2017-05-27T15:44:40.960Z,101019
2017-05-27T15:47:10.135Z,101011
2017-05-27T15:52:40.041Z,101006
2017-05-27T15:55:15.703Z,101009
2017-05-27T15:57:44.761Z,101004
2017-05-27T16:00:13.810Z,101022
2017-05-27T16:02:42.954Z,101008
2017-05-27T16:05:12.005Z,101015
2017-05-27T16:34:47.674Z,101023
2017-05-27T16:40:17.577Z,101025
2017-05-27T16:42:46.621Z,101012
2017-05-27T16:48:16.712Z,101021
2017-05-27T16:56:47.602Z,101016
2017-05-27T17:08:19.683Z,101005
2017-05-27T17:10:48.710Z,101015
2017-05-27T17:19:19.126Z,101006
2017-05-27T17:21:48.262Z,101010
2017-05-27T17:24:17.732Z,101004
2017-05-27T17:27:07.491Z,101007
2017-05-27T17:29:36.595Z,101009
2017-05-27T17:32:05.619Z,101012
2017-05-27T17:34:34.702Z,101013
2017-05-27T17:37:10.182Z,101009
2017-05-27T17:57:42.769Z,100553
2017-05-27T18:00:11.791Z,100604
2017-05-27T18:09:06.860Z,100790
2017-05-27T18:11:35.929Z,101018
2017-05-27T18:17:06.211Z,101031
2017-05-27T18:19:35.276Z,101042
2017-05-27T18:22:10.446Z,101037
2017-05-27T18:25:06.880Z,101041
2017-05-27T18:27:35.980Z,101032
2017-05-27T18:30:05.089Z,101041
2017-05-27T18:32:34.145Z,101043
2017-05-27T18:41:10.281Z,101039
2017-05-27T18:44:06.786Z,101037
2017-05-27T18:46:35.883Z,101041
2017-05-27T18:49:04.943Z,101050
2017-05-27T18:51:34.922Z,101052
2017-05-27T18:54:04.831Z,101049
2017-05-27T18:59:34.978Z,101046
2017-05-27T19:02:04.053Z,101051
2017-05-27T19:07:33.929Z,101066
2017-05-27T19:10:02.990Z,101070
2017-05-27T19:12:32.078Z,101073
2017-05-27T19:15:01.165Z,101072
2017-05-27T19:17:30.227Z,101068
2017-05-27T19:19:59.351Z,101066
2017-05-27T19:28:30.440Z,101074
2017-05-27T19:30:59.511Z,101076
2017-05-27T19:33:28.569Z,101081
2017-05-27T19:35:57.673Z,101085
2017-05-27T19:38:26.715Z,101090
2017-05-27T19:40:55.746Z,101085
2017-05-27T19:43:25.664Z,101086
2017-05-27T19:45:54.764Z,101102
2017-05-27T19:51:25.250Z,101094
2017-05-27T19:53:54.297Z,101102
2017-05-27T19:56:23.315Z,101101
2017-05-27T20:02:07.514Z,101105
2017-05-27T20:05:06.770Z,101109
2017-05-27T20:10:35.760Z,101117
2017-05-27T20:13:08.356Z,101114
2017-05-27T20:21:39.241Z,101124
2017-05-27T20:27:09.562Z,101118
2017-05-27T20:30:07.111Z,101113
2017-05-27T20:32:36.175Z,101121
2017-05-27T20:38:06.457Z,101120
2017-05-27T20:46:37.477Z,101114
2017-05-27T20:49:08.238Z,101119
2017-05-27T20:51:37.275Z,101124
2017-05-27T20:54:06.351Z,101123
2017-05-27T21:05:37.327Z,101128
2017-05-27T21:08:06.404Z,101129
2017-05-27T21:10:35.428Z,101141
2017-05-27T21:13:04.504Z,101134
2017-05-27T21:15:33.962Z,101130
2017-05-27T21:21:03.798Z,101121
2017-05-27T21:23:32.819Z,101129
2017-05-27T21:26:01.839Z,101125
2017-05-27T21:31:31.468Z,101131
2017-05-27T21:37:01.981Z,101135
2017-05-27T21:39:30.987Z,101127
2017-05-27T21:45:08.001Z,101125
2017-05-27T21:47:37.051Z,101126
2017-05-27T21:50:06.256Z,101132
2017-05-27T21:52:35.360Z,101121
2017-05-27T21:55:04.383Z,101123
2017-05-27T21:57:33.468Z,101117
2017-05-27T22:00:08.298Z,101124
2017-05-27T22:02:37.331Z,101127
2017-05-27T22:05:06.355Z,101129
2017-05-27T22:10:36.506Z,101123
2017-05-27T22:13:09.306Z,101117
2017-05-27T22:15:38.407Z,101116
2017-05-27T22:18:07.448Z,101126
2017-05-27T22:20:36.502Z,101126
2017-05-27T22:23:05.590Z,101126
2017-05-27T22:25:34.612Z,101128
2017-05-27T22:31:05.116Z,101117
2017-05-27T22:36:35.452Z,101124
2017-05-27T22:39:04.460Z,101127
2017-05-27T22:41:33.490Z,101130
2017-05-27T22:44:02.558Z,101132
2017-05-27T22:46:31.576Z,101132
2017-05-27T22:49:00.648Z,101135
2017-05-27T22:51:29.658Z,101141
2017-05-27T22:53:58.727Z,101138
2017-05-27T22:56:27.897Z,101143
2017-05-27T22:58:56.932Z,101142
2017-05-27T23:04:27.561Z,101151
2017-05-27T23:06:56.608Z,101150
2017-05-27T23:12:26.843Z,101143
2017-05-27T23:17:39.786Z,101143
2017-05-27T23:20:08.847Z,101142
2017-05-27T23:22:37.916Z,101148
2017-05-27T23:28:08.660Z,101153
2017-05-27T23:30:37.705Z,101150
2017-05-27T23:33:06.763Z,101149
2017-05-27T23:35:35.787Z,101152
2017-05-27T23:38:04.835Z,101145
2017-05-27T23:40:33.885Z,101145
2017-05-27T23:43:09.537Z,101141
2017-05-27T23:45:38.615Z,101132
2017-05-27T23:48:07.693Z,101135
2017-05-27T23:50:36.712Z,101138
2017-05-27T23:53:09.613Z,101134
2017-05-27T23:55:38.635Z,101129
2017-05-27T23:58:07.708Z,101134
